Time;durP1;ratioP1;P1;durP2;ratioP2;P2;SDS_P1;SDS_P2;PMS_P1;PMS_P2;Temp;Humidity;BMP_temperature;BMP_pressure;BME280_temperature;BME280_humidity;BME280_pressure;Samples;Min_cycle;Max_cycle;Signal;HPM_P1;HPM_P2
2022/09/14 00:01:48;;;;;;;;;;;24.00;67.90;;;24.41;44.62;97710.59;4983548;28;113620;-72
2022/09/14 00:04:16;;;;;;;;;;;24.00;68.10;;;24.42;44.53;97700.91;4978767;28;124053;-72
2022/09/14 00:06:44;;;;;;;;;;;24.00;68.20;;;24.42;44.63;97709.38;4982606;28;124355;-72
2022/09/14 00:09:18;;;;;;;;;;;24.00;68.30;;;24.41;44.52;97711.41;4985686;28;114398;-72
2022/09/14 00:11:45;;;;;;;;;;;24.00;68.50;;;24.41;44.53;97719.88;4977907;28;115502;-72
2022/09/14 00:14:12;;;;;;;;;;;24.00;68.70;;;24.42;44.77;97720.66;4970962;28;124762;-72
2022/09/14 00:16:39;;;;;;;;;;;24.00;68.80;;;24.42;44.71;97718.66;4975172;28;123663;-72
2022/09/14 00:19:19;;;;;;;;;;;24.00;68.80;;;24.40;44.56;97700.56;4972474;28;114418;-72
2022/09/14 00:21:49;;;;;;;;;;;24.00;69.10;;;24.40;44.75;97700.56;4983410;28;113975;-73
2022/09/14 00:24:16;;;;;;;;;;;23.90;69.00;;;24.40;44.84;97697.72;4987971;28;124230;-73
2022/09/14 00:26:42;;;;;;;;;;;23.90;69.20;;;24.39;44.90;97685.63;4987059;28;125184;-72
2022/09/14 00:29:09;;;;;;;;;;;23.90;69.40;;;24.40;44.96;97684.41;4985240;28;114856;-74
2022/09/14 00:31:37;;;;;;;;;;;23.90;69.60;;;24.39;45.23;97662.22;4971001;28;114169;-73
2022/09/14 00:34:05;;;;;;;;;;;23.90;69.80;;;24.39;45.22;97671.50;4984740;28;124502;-73
2022/09/14 00:36:36;;;;;;;;;;;24.00;70.00;;;24.38;45.21;97667.09;4975336;28;124131;-73
2022/09/14 00:39:03;;;;;;;;;;;23.90;70.10;;;24.38;45.55;97657.84;4981328;28;115207;-73
2022/09/14 00:41:32;;;;;;;;;;;23.90;70.20;;;24.37;45.31;97657.03;4972455;28;114718;-73
2022/09/14 00:44:26;;;;;;;;;;;23.90;70.40;;;24.37;45.46;97657.03;4988689;28;124451;-73
2022/09/14 00:46:54;;;;;;;;;;;23.90;70.60;;;24.36;45.25;97649.00;4984448;28;122697;-73
2022/09/14 00:49:24;;;;;;;;;;;23.90;70.70;;;24.35;45.28;97653.06;4988908;28;113112;-73
2022/09/14 00:51:52;;;;;;;;;;;23.90;70.80;;;24.36;45.42;97651.81;4975319;28;113685;-73
2022/09/14 00:54:18;;;;;;;;;;;23.90;70.90;;;24.35;45.18;97647.41;4979950;28;123451;-73
2022/09/14 00:56:46;;;;;;;;;;;23.90;71.00;;;24.34;45.68;97646.63;4972069;28;124345;-73
2022/09/14 00:59:21;;;;;;;;;;;23.90;71.10;;;24.34;45.24;97640.16;4986693;28;114537;-73
2022/09/14 01:01:47;;;;;;;;;;;23.90;71.30;;;24.35;45.88;97624.81;4965082;28;113807;-73
2022/09/14 01:04:14;;;;;;;;;;;23.90;71.50;;;24.34;45.86;97614.75;4978228;28;123972;-74
2022/09/14 01:07:05;;;;;;;;;;;23.90;71.70;;;24.35;45.78;97619.19;4987828;28;122980;-72
2022/09/14 01:09:50;;;;;;;;;;;23.90;71.80;;;24.33;45.89;97621.63;4971589;28;114552;-72
2022/09/14 01:12:19;;;;;;;;;;;23.90;72.00;;;24.32;45.96;97614.41;4980523;28;113336;-72
2022/09/14 01:15:05;;;;;;;;;;;23.90;72.30;;;24.31;46.03;97610.75;4983763;28;123484;-72
2022/09/14 01:17:43;;;;;;;;;;;23.90;72.40;;;24.30;46.11;97591.44;4973506;28;124276;-72
2022/09/14 01:20:13;;;;;;;;;;;23.90;72.60;;;24.28;46.46;97585.44;4990536;28;114292;-73
2022/09/14 01:22:49;;;;;;;;;;;23.80;72.80;;;24.27;46.74;97612.06;4973934;28;113668;-72
2022/09/14 01:25:56;;;;;;;;;;;23.80;73.30;;;24.21;46.84;97688.78;4975635;28;123996;-72
2022/09/14 01:28:34;;;;;;;;;;;23.80;73.80;;;24.14;47.17;97722.78;4956910;28;123859;-72
2022/09/14 01:31:08;;;;;;;4.20;2.23;;;23.70;74.30;;;24.00;47.61;97759.72;4982296;28;115894;-72
2022/09/14 01:33:46;;;;;;;10.93;2.63;;;23.60;74.90;;;23.85;49.47;97704.75;4980000;28;115563;-72
2022/09/14 01:36:15;;;;;;;5.63;2.40;;;23.50;77.40;;;23.69;51.64;97742.81;4985973;28;124672;-72
2022/09/14 01:38:46;;;;;;;6.80;2.30;;;23.40;80.50;;;23.50;53.08;97710.47;4988990;28;124089;-72
2022/09/14 01:41:17;;;;;;;4.40;2.00;;;23.20;83.00;;;23.32;53.78;97695.84;4973256;28;112636;-72
2022/09/14 01:43:47;;;;;;;3.90;2.07;;;23.10;84.40;;;23.17;54.92;97706.53;4981544;28;113246;-73
2022/09/14 01:46:24;;;;;;;4.17;1.60;;;22.90;86.10;;;23.03;55.55;97701.91;4976928;28;124400;-72
2022/09/14 01:49:22;;;;;;;2.57;1.93;;;22.80;87.40;;;22.87;55.96;97705.28;4986022;28;123901;-72
2022/09/14 01:52:00;;;;;;;4.03;1.90;;;22.70;88.80;;;22.73;57.27;97716.75;4971912;28;113422;-72
2022/09/14 01:54:54;;;;;;;4.60;1.97;;;22.60;90.20;;;22.59;58.15;97705.63;4983884;28;114426;-73
2022/09/14 01:57:35;;;;;;;5.20;2.33;;;22.40;90.90;;;22.49;58.83;97701.72;4988552;28;123305;-73
2022/09/14 02:00:15;;;;;;;4.00;2.93;;;22.30;91.40;;;22.46;59.36;97716.63;4979377;28;123910;-74
2022/09/14 02:02:53;;;;;;;;;;;22.30;91.90;;;22.45;59.68;97718.63;4985411;28;113918;-73
2022/09/14 02:05:25;;;;;;;;;;;22.20;92.30;;;22.42;60.33;97719.47;4986204;28;114219;-75
2022/09/14 02:07:52;;;;;;;;;;;22.20;92.80;;;22.39;60.61;97716.72;4978089;28;124326;-74
2022/09/14 02:10:18;;;;;;;;;;;22.10;93.10;;;22.35;60.83;97728.00;4984326;28;123638;-75
2022/09/14 02:12:45;;;;;;;;;;;22.00;93.50;;;22.30;61.28;97728.47;4982368;28;114036;-73
2022/09/14 02:15:12;;;;;;;;;;;22.00;93.90;;;22.26;61.36;97739.75;4983420;28;113625;-74
2022/09/14 02:17:39;;;;;;;;;;;22.00;94.10;;;22.22;61.68;97732.56;4984841;28;124453;-73
2022/09/14 02:20:09;;;;;;;;;;;21.90;94.30;;;22.20;61.57;97726.56;4976984;28;125196;-74
2022/09/14 02:22:36;;;;;;;;;;;21.90;94.50;;;22.20;61.90;97720.94;4989241;28;114769;-74
2022/09/14 02:25:03;;;;;;;;;;;21.90;94.70;;;22.22;61.91;97721.31;4976988;28;114630;-74
2022/09/14 02:27:29;;;;;;;;;;;21.90;94.90;;;22.25;61.73;97709.22;4984923;28;123998;-74
2022/09/14 02:29:55;;;;;;;;;;;21.90;95.00;;;22.27;62.16;97716.03;4974760;28;123812;-73
2022/09/14 02:32:52;;;;;;;;;;;21.90;95.20;;;22.30;61.87;97714.41;4977846;28;114948;-76
2022/09/14 02:35:26;;;;;;;;;;;21.90;95.50;;;22.33;62.04;97709.94;4981715;28;113580;-74
2022/09/14 02:37:52;;;;;;;;;;;21.90;95.60;;;22.36;62.39;97721.16;4985723;28;123387;-73
2022/09/14 02:40:39;;;;;;;;;;;21.90;95.70;;;22.37;62.39;97717.13;4986334;28;123173;-73
2022/09/14 02:43:32;;;;;;;;;;;21.90;95.80;;;22.37;61.95;97714.31;4998538;28;114567;-74
2022/09/14 02:46:01;;;;;;;;;;;21.90;95.80;;;22.40;62.39;97721.13;4974894;28;114015;-74
2022/09/14 02:48:47;;;;;;;;;;;22.00;95.90;;;22.42;62.52;97729.94;4985028;28;124510;-74
2022/09/14 02:51:37;;;;;;;;;;;22.00;96.30;;;22.44;62.47;97724.72;4985294;28;124212;-74
2022/09/14 02:54:07;;;;;;;;;;;22.00;96.20;;;22.43;62.24;97721.09;4987232;28;114450;-73
2022/09/14 02:56:34;;;;;;;;;;;22.00;96.20;;;22.44;62.13;97719.06;4999463;28;113935;-74
2022/09/14 02:59:01;;;;;;;;;;;22.00;96.20;;;22.43;62.02;97720.28;4976359;28;124997;-72
2022/09/14 03:01:27;;;;;;;;;;;22.00;96.20;;;22.43;62.36;97712.66;4987330;28;123053;-73
2022/09/14 03:03:53;;;;;;;;;;;22.00;96.50;;;22.42;62.14;97693.34;4962958;28;113175;-73
2022/09/14 03:06:20;;;;;;;;;;;22.00;96.30;;;22.44;62.35;97690.94;4987026;28;114512;-73
2022/09/14 03:08:46;;;;;;;;;;;22.00;96.40;;;22.44;62.41;97690.94;4974605;28;123906;-72
2022/09/14 03:11:13;;;;;;;;;;;22.00;96.50;;;22.46;62.97;97686.47;4984326;28;123856;-73
2022/09/14 03:13:39;;;;;;;;;;;22.00;96.70;;;22.48;63.00;97695.28;4977861;28;115642;-72
2022/09/14 03:16:07;;;;;;;;;;;22.00;96.80;;;22.49;62.84;97696.09;4988124;28;115253;-73
2022/09/14 03:18:34;;;;;;;3.93;1.93;;;22.00;96.80;;;22.49;62.86;97696.91;4975843;28;123882;-74
2022/09/14 03:21:13;;;;;;;4.43;2.20;;;22.00;96.90;;;22.49;62.68;97698.91;4977616;28;124341;-73
2022/09/14 03:23:44;;;;;;;3.67;2.30;;;22.00;96.90;;;22.47;62.76;97693.69;4980668;28;114329;-73
2022/09/14 03:26:17;;;;;;;5.00;2.17;;;22.00;96.80;;;22.47;62.53;97687.28;4985528;28;113175;-73
2022/09/14 03:28:49;;;;;;;2.97;2.10;;;22.00;96.80;;;22.46;62.54;97678.03;4979241;28;122975;-73
2022/09/14 03:31:16;;;;;;;4.67;1.80;;;22.00;97.10;;;22.45;62.63;97667.97;4985322;28;122803;-73
2022/09/14 03:33:43;;;;;;;2.70;1.90;;;22.00;96.90;;;22.46;62.62;97663.13;4984731;28;114170;-74
2022/09/14 03:36:17;;;;;;;2.70;2.00;;;22.00;96.90;;;22.45;62.95;97665.16;4981542;28;113993;-73
2022/09/14 03:38:47;;;;;;;3.33;2.03;;;22.00;97.00;;;22.44;62.74;97663.56;4973735;28;124341;-73
2022/09/14 03:41:15;;;;;;;4.23;2.17;;;22.00;97.10;;;22.44;62.95;97660.75;4984149;28;123946;-73
2022/09/14 03:43:42;;;;;;;4.40;2.30;;;22.00;97.10;;;22.43;62.93;97652.72;4985614;28;114269;-74
2022/09/14 03:46:16;;;;;;;3.77;2.13;;;22.00;97.10;;;22.42;63.29;97646.31;4978272;28;114346;-74
2022/09/14 03:48:43;;;;;;;5.73;2.60;;;22.00;97.20;;;22.42;63.23;97643.50;4983880;28;124087;-73
2022/09/14 03:51:12;;;;;;;7.60;2.40;;;21.90;97.20;;;22.41;63.26;97644.72;4974984;28;124147;-73
2022/09/14 03:53:41;;;;;;;4.57;1.70;;;21.90;97.60;;;22.43;62.95;97647.09;4985078;28;114550;-72
2022/09/14 03:56:14;;;;;;;4.03;2.13;;;22.00;97.40;;;22.43;63.50;97642.28;4989842;28;113829;-73
2022/09/14 03:58:42;;;;;;;3.17;2.03;;;22.00;97.40;;;22.43;63.62;97624.56;4985731;28;124454;-72
2022/09/14 04:01:14;;;;;;;5.60;2.03;;;22.00;97.50;;;22.43;63.38;97622.59;4984252;28;123818;-74
2022/09/14 04:03:41;;;;;;;2.87;1.80;;;22.00;97.60;;;22.43;63.73;97625.41;4984100;28;115080;-74
2022/09/14 04:06:08;;;;;;;4.07;2.20;;;22.00;97.70;;;22.44;63.57;97620.56;4985595;28;115010;-72
2022/09/14 04:08:38;;;;;;;5.27;2.20;;;22.00;97.70;;;22.43;63.82;97630.22;4994025;28;123869;-72
2022/09/14 04:11:18;;;;;;;4.83;2.53;;;22.00;97.80;;;22.43;63.66;97625.41;4977797;28;124318;-72
2022/09/14 04:13:45;;;;;;;3.60;2.10;;;22.00;97.90;;;22.43;63.81;97621.75;4985041;28;114380;-72
2022/09/14 04:16:13;;;;;;;3.27;1.97;;;22.00;98.00;;;22.43;63.95;97622.59;4982158;28;113970;-72
2022/09/14 04:18:40;;;;;;;4.40;2.63;;;22.00;98.10;;;22.43;64.21;97608.50;4989082;28;123640;-74
2022/09/14 04:21:13;;;;;;;5.03;2.17;;;22.00;98.10;;;22.42;64.26;97606.91;4986843;28;124313;-73
2022/09/14 04:23:40;;;;;;;3.23;2.20;;;22.00;98.20;;;22.43;64.10;97610.50;4990524;28;113840;-73
2022/09/14 04:26:18;;;;;;;3.40;2.03;;;21.90;98.50;;;22.42;64.31;97618.16;4974344;28;114135;-73
2022/09/14 04:28:45;;;;;;;4.53;2.20;;;22.00;98.40;;;22.43;64.52;97611.31;4985102;28;123321;-73
2022/09/14 04:31:12;;;;;;;4.43;2.30;;;21.90;98.30;;;22.41;64.55;97616.56;4979457;28;122607;-72
2022/09/14 04:33:41;;;;;;;4.80;2.50;;;21.90;98.40;;;22.40;64.43;97614.94;4980908;28;114180;-72
2022/09/14 04:36:12;;;;;;;3.83;2.67;;;21.90;98.40;;;22.41;64.41;97616.56;4984948;28;114508;-73
2022/09/14 04:38:40;;;;;;;3.33;2.27;;;21.90;98.50;;;22.42;64.48;97611.72;4988414;28;124376;-72
2022/09/14 04:41:19;;;;;;;10.00;3.30;;;21.90;98.50;;;22.40;64.58;97598.06;4988824;28;123912;-73
2022/09/14 04:43:48;;;;;;;2.67;1.87;;;21.90;98.40;;;22.38;64.21;97594.91;4981846;28;114315;-73
2022/09/14 04:46:22;;;;;;;3.03;2.43;;;21.90;98.40;;;22.36;64.38;97608.59;4985094;28;114246;-73
2022/09/14 04:48:49;;;;;;;3.53;2.07;;;21.90;98.40;;;22.35;64.11;97617.44;4979946;28;124606;-73
2022/09/14 04:51:19;;;;;;;4.20;2.10;;;21.90;98.40;;;22.32;64.59;97607.03;4978640;28;122792;-74
2022/09/14 04:53:49;;;;;;;4.60;2.30;;;21.90;98.40;;;22.29;64.50;97608.66;4981492;28;114963;-74
2022/09/14 04:56:17;;;;;;;2.47;2.17;;;21.90;98.50;;;22.26;64.43;97612.31;4978190;28;115000;-75
2022/09/14 04:58:47;;;;;;;4.00;2.27;;;21.80;98.50;;;22.22;64.73;97614.41;4965254;28;123802;-71
2022/09/14 05:01:18;;;;;;;3.33;2.07;;;21.80;98.70;;;22.17;64.88;97617.63;4974235;28;123426;-73
2022/09/14 05:03:45;;;;;;;4.93;2.40;;;21.70;98.60;;;22.12;64.95;97612.47;4982721;28;114834;-73
2022/09/14 05:06:24;;;;;;;4.30;2.33;;;21.70;98.60;;;22.09;65.10;97613.31;4982466;28;113664;-75
2022/09/14 05:08:52;;;;;;;3.30;2.20;;;21.70;98.70;;;22.08;65.13;97611.69;4978583;28;123942;-74
2022/09/14 05:11:22;;;;;;;5.27;2.73;;;21.70;98.80;;;22.08;65.34;97615.28;4967843;28;124161;-74
2022/09/14 05:13:49;;;;;;;5.57;2.70;;;21.60;98.80;;;22.08;65.43;97608.88;4978715;28;114173;-74
2022/09/14 05:16:20;;;;;;;3.83;2.23;;;21.60;98.90;;;22.08;65.28;97614.50;4971847;28;114558;-73
2022/09/14 05:18:48;;;;;;;3.17;2.27;;;21.60;99.00;;;22.05;65.47;97614.13;4979830;28;124053;-72
2022/09/14 05:21:18;;;;;;;2.97;2.00;;;21.60;99.00;;;22.02;65.30;97614.97;4959218;28;123500;-73
2022/09/14 05:23:45;;;;;;;4.00;2.70;;;21.60;99.10;;;22.02;65.61;97623.41;4982473;28;113825;-72
2022/09/14 05:26:13;;;;;;;7.03;2.80;;;21.60;99.10;;;22.03;65.63;97636.25;4982080;28;113034;-73
2022/09/14 05:28:39;;;;;;;7.47;2.50;;;21.60;99.20;;;22.02;65.77;97642.28;4973212;28;123148;-73
2022/09/14 05:31:11;;;;;;;3.47;2.10;;;21.50;99.30;;;21.99;66.09;97646.72;4969834;28;123785;-73
2022/09/14 05:33:38;;;;;;;4.50;2.30;;;21.50;99.60;;;22.00;65.92;97651.16;4978303;28;114029;-73
2022/09/14 05:36:07;;;;;;;3.57;2.27;;;21.50;99.70;;;22.02;66.46;97654.34;4979524;28;113890;-73
2022/09/14 05:38:36;;;;;;;5.57;2.57;;;21.50;99.80;;;22.04;66.23;97660.34;4973269;28;124147;-74
2022/09/14 05:41:04;;;;;;;8.70;3.00;;;21.60;99.90;;;22.04;66.61;97660.34;4971672;28;124029;-74
2022/09/14 05:43:31;;;;;;;5.13;3.20;;;21.50;99.90;;;22.05;66.72;97650.69;4973757;28;115333;-73
2022/09/14 05:46:06;;;;;;;4.07;2.43;;;21.50;99.90;;;22.03;66.93;97655.13;4970960;28;115433;-73
2022/09/14 05:48:34;;;;;;;5.97;2.70;;;21.50;99.90;;;21.99;66.99;97649.56;4971183;28;124038;-73
2022/09/14 05:51:08;;;;;;;5.03;2.70;;;21.50;99.90;;;22.00;66.47;97645.53;4954807;28;123697;-74
2022/09/14 05:53:35;;;;;;;6.73;2.60;;;21.50;99.90;;;22.03;66.90;97646.69;4977620;28;114085;-73
2022/09/14 05:56:08;;;;;;;3.33;2.67;;;21.50;99.90;;;22.06;66.74;97641.03;4971005;28;114100;-73
2022/09/14 05:58:37;;;;;;;4.53;2.30;;;21.50;99.90;;;22.10;66.85;97635.38;4966822;28;123851;-73
2022/09/14 06:01:09;;;;;;;6.60;3.10;;;21.60;99.90;;;22.13;66.83;97623.28;4973421;28;123741;-73
2022/09/14 06:03:36;;;;;;;3.63;3.07;;;21.60;99.90;;;22.15;66.44;97620.84;4990622;28;114180;-73
2022/09/14 06:06:05;;;;;;;3.83;3.23;;;21.60;99.90;;;22.18;66.89;97622.03;4965105;28;114052;-75
2022/09/14 06:08:32;;;;;;;5.83;3.13;;;21.70;99.90;;;22.22;66.37;97639.72;4965189;28;124171;-73
2022/09/14 06:11:11;;;;;;;4.53;3.10;;;21.70;99.90;;;22.26;66.45;97643.28;4969693;28;124091;-75
2022/09/14 06:13:38;;;;;;;8.80;3.40;;;21.70;99.90;;;22.31;66.42;97650.47;4970844;28;114025;-75
2022/09/14 06:16:17;;;;;;;5.40;3.40;;;21.80;99.90;;;22.34;66.49;97650.41;4971380;28;114118;-74
2022/09/14 06:18:45;;;;;;;5.37;3.33;;;21.80;99.90;;;22.38;66.20;97633.47;4975990;28;123599;-73
2022/09/14 06:21:15;;;;;;;3.40;2.67;;;21.80;99.90;;;22.41;65.96;97627.03;4968724;28;124297;-74
2022/09/14 06:23:43;;;;;;;4.17;3.23;;;21.90;99.90;;;22.41;66.02;97641.09;4972299;28;114066;-74
2022/09/14 06:26:10;;;;;;;5.33;2.90;;;21.90;99.90;;;22.41;66.27;97647.53;4986833;28;113759;-75
2022/09/14 06:28:37;;;;;;;5.00;3.20;;;21.90;99.90;;;22.43;66.39;97656.34;4981705;28;123993;-72
2022/09/14 06:31:06;;;;;;;3.80;2.93;;;21.90;99.90;;;22.44;66.11;97652.31;4980488;28;123895;-74
2022/09/14 06:33:34;;;;;;;7.30;3.00;;;21.90;99.90;;;22.44;66.05;97657.94;4972863;28;115241;-73
2022/09/14 06:36:10;;;;;;;7.20;2.67;;;22.00;99.90;;;22.42;66.62;97646.31;4980474;28;115047;-73
2022/09/14 06:38:37;;;;;;;3.83;2.83;;;21.90;99.90;;;22.43;66.27;97647.91;4979550;28;124202;-73
2022/09/14 06:41:07;;;;;;;4.30;3.13;;;21.90;99.90;;;22.41;66.69;97647.53;4977791;28;123615;-74
2022/09/14 06:43:38;;;;;;;3.00;2.60;;;21.90;99.90;;;22.41;66.96;97639.09;4977567;28;114433;-74
2022/09/14 06:46:22;;;;;;;2.60;2.33;;;21.90;99.90;;;22.42;66.68;97637.84;4985473;28;114040;-76
2022/09/14 06:48:57;;;;;;;3.13;2.60;;;22.00;99.90;;;22.45;67.09;97641.84;4981047;28;123308;-74
2022/09/14 06:51:29;;;;;;;3.23;2.77;;;22.00;99.90;;;22.46;67.15;97637.81;4970150;28;124231;-75
2022/09/14 06:54:00;;;;;;;6.17;3.30;;;22.00;99.90;;;22.49;67.14;97629.34;4978288;28;114612;-76
2022/09/14 06:56:30;;;;;;;7.80;3.40;;;22.00;99.90;;;22.53;67.36;97622.84;4979222;28;114237;-75
2022/09/14 06:58:58;;;;;;;4.57;3.37;;;22.00;99.90;;;22.57;67.37;97617.97;4965732;28;123356;-74
2022/09/14 07:01:25;;;;;;;6.33;2.87;;;22.00;99.90;;;22.59;67.52;97621.97;4984483;28;124633;-73
2022/09/14 07:03:52;;;;;;;5.43;2.80;;;22.10;99.90;;;22.64;67.29;97617.88;4987085;28;114498;-73
2022/09/14 07:06:26;;;;;;;5.53;3.00;;;22.10;99.90;;;22.66;67.43;97623.91;4985737;28;114217;-72
2022/09/14 07:08:54;;;;;;;3.30;2.63;;;22.20;99.90;;;22.69;67.56;97632.28;4979008;28;123963;-72
2022/09/14 07:11:28;;;;;;;8.33;3.20;;;22.20;99.90;;;22.71;67.32;97629.84;4993661;28;123922;-72
2022/09/14 07:13:58;;;;;;;4.17;2.73;;;22.20;99.90;;;22.73;68.03;97632.25;4986007;28;114341;-73
2022/09/14 07:16:26;;;;;;;3.73;3.33;;;22.20;99.90;;;22.78;67.86;97640.22;4983356;28;114380;-72
2022/09/14 07:18:54;;;;;;;4.07;2.50;;;22.20;99.90;;;22.83;67.90;97631.28;4983266;28;123995;-73
2022/09/14 07:21:22;;;;;;;4.53;2.93;;;22.30;99.90;;;22.89;67.47;97635.25;4978549;28;123996;-73
2022/09/14 07:23:49;;;;;;;6.13;3.10;;;22.30;99.90;;;22.96;67.53;97636.38;4982946;28;115199;-73
2022/09/14 07:26:19;;;;;;;3.40;2.80;;;22.40;99.90;;;22.98;67.48;97631.94;4989782;28;115132;-73
2022/09/14 07:28:51;;;;;;;6.43;2.83;;;22.40;99.90;;;23.02;67.78;97637.50;4991104;28;123005;-73
2022/09/14 07:31:42;;;;;;;5.83;2.83;;;22.50;99.90;;;23.04;67.71;97637.91;4989332;28;123786;-73
2022/09/14 07:34:10;;;;;;;4.90;2.90;;;22.50;99.90;;;23.06;67.75;97644.69;4972167;28;114344;-74
2022/09/14 07:36:41;;;;;;;9.80;2.93;;;22.60;99.90;;;23.10;67.72;97630.56;4985061;28;114153;-71
2022/09/14 07:39:12;;;;;;;4.37;2.87;;;22.60;99.90;;;23.15;67.80;97635.72;4981591;28;124015;-73
2022/09/14 07:41:39;;;;;;;3.20;2.90;;;22.60;99.90;;;23.19;67.74;97632.88;4984934;28;124503;-73
2022/09/14 07:44:07;;;;;;;6.33;3.17;;;22.70;99.90;;;23.24;67.58;97650.09;4981853;28;113532;-73
2022/09/14 07:46:40;;;;;;;4.30;2.67;;;22.70;99.90;;;23.29;67.12;97646.78;4976563;28;115482;-73
2022/09/14 07:49:08;;;;;;;3.30;2.97;;;22.80;99.90;;;23.37;67.14;97642.63;4983948;28;123866;-73
2022/09/14 07:51:36;;;;;;;2.53;2.33;;;22.90;99.90;;;23.45;67.15;97642.50;4982196;28;124037;-73
2022/09/14 07:54:04;;;;;;;4.47;2.87;;;22.90;99.90;;;23.50;66.63;97644.84;4986606;28;114146;-73
2022/09/14 07:56:33;;;;;;;5.20;2.90;;;23.00;99.90;;;23.57;66.53;97651.16;4985535;28;114128;-73
2022/09/14 07:59:00;;;;;;;3.60;2.90;;;23.00;99.90;;;23.64;66.33;97647.41;4978066;28;123492;-73
2022/09/14 08:01:28;;;;;;;4.50;2.80;;;23.10;99.90;;;23.71;66.36;97658.63;4975892;28;123820;-73
2022/09/14 08:03:59;;;;;;;5.23;2.80;;;23.20;99.90;;;23.77;66.15;97665.34;4984076;28;114657;-72
2022/09/14 08:06:25;;;;;;;3.43;2.53;;;23.20;99.90;;;23.84;65.71;97664.44;4974683;28;113782;-73
2022/09/14 08:08:53;;;;;;;4.30;2.93;;;23.30;99.90;;;23.90;65.88;97661.94;4990299;28;123381;-73
2022/09/14 08:11:31;;;;;;;7.20;2.43;;;23.30;99.90;;;23.95;65.71;97670.69;4982855;28;123986;-73
2022/09/14 08:14:12;;;;;;;8.10;3.03;;;23.40;99.90;;;23.98;65.46;97675.47;4973532;28;115098;-73
2022/09/14 08:16:39;;;;;;;4.43;2.90;;;23.50;99.90;;;24.02;65.37;97664.94;4991414;28;115465;-73
2022/09/14 08:19:12;;;;;;;10.60;3.00;;;23.50;99.90;;;24.08;65.71;97659.59;4972304;28;124825;-73
2022/09/14 08:21:39;;;;;;;13.20;2.63;;;23.60;99.90;;;24.16;65.04;97661.06;4977234;28;123991;-72
2022/09/14 08:24:06;;;;;;;8.07;2.47;;;23.60;99.90;;;24.21;64.77;97666.22;4975335;28;114128;-74
2022/09/14 08:26:35;;;;;;;8.63;2.50;;;23.80;99.90;;;24.29;64.88;97675.34;4977829;28;114342;-73
2022/09/14 08:29:03;;;;;;;4.07;2.33;;;23.80;99.90;;;24.39;64.53;97687.66;4984866;28;124413;-74
2022/09/14 08:31:30;;;;;;;4.80;2.83;;;23.90;99.90;;;24.46;63.97;97687.53;4962091;28;123925;-74
2022/09/14 08:34:02;;;;;;;3.00;2.50;;;23.90;99.90;;;24.51;63.82;97687.06;4975941;28;114390;-73
2022/09/14 08:36:33;;;;;;;4.17;2.43;;;24.00;99.80;;;24.55;63.64;97695.44;4972712;28;114181;-74
2022/09/14 08:39:00;;;;;;;4.60;2.27;;;24.00;99.50;;;24.59;63.09;97696.97;4969155;28;122979;-75
2022/09/14 08:41:54;;;;;;;4.00;2.60;;;24.10;99.20;;;24.61;62.94;97694.53;4972932;28;123596;-76
2022/09/14 08:44:29;;;;;;;10.50;3.13;;;24.10;98.90;;;24.65;62.37;97703.69;4973544;28;114314;-75
2022/09/14 08:47:13;;;;;;;3.63;2.47;;;24.20;98.80;;;24.66;62.27;97713.78;4978535;28;114733;-75
2022/09/14 08:49:47;;;;;;;4.03;2.23;;;24.20;98.40;;;24.70;62.37;97736.31;4983985;28;123479;-77
2022/09/14 08:52:35;;;;;;;6.37;2.40;;;24.20;98.40;;;24.75;62.38;97732.19;4967857;28;123359;-75
2022/09/14 08:55:40;;;;;;;3.30;2.77;;;24.30;98.40;;;24.81;62.18;97730.44;4980382;28;114343;-73
2022/09/14 08:58:51;;;;;;;5.50;2.53;;;24.30;98.70;;;24.91;61.93;97712.47;4977829;28;113951;-76
2022/09/14 09:01:34;;;;;;;4.13;2.53;;;24.40;98.40;;;25.04;61.59;97699.28;4982153;28;124301;-74
2022/09/14 09:04:31;;;;;;;3.43;2.60;;;24.50;98.20;;;25.14;61.52;97692.56;4975768;28;124314;-74
2022/09/14 09:07:16;;;;;;;3.00;2.20;;;24.60;98.10;;;25.23;61.15;97686.38;4973811;28;114324;-74
2022/09/14 09:09:48;;;;;;;4.20;2.50;;;24.70;97.90;;;25.30;60.77;97694.69;4975320;28;115111;-72
2022/09/14 09:12:29;;;;;;;4.47;2.50;;;24.80;97.80;;;25.34;60.02;97703.09;4972103;28;123725;-75
2022/09/14 09:15:16;;;;;;;4.73;2.60;;;24.80;97.30;;;25.39;60.07;97702.59;4968031;28;123734;-74
2022/09/14 09:17:48;;;;;;;3.57;2.40;;;24.90;97.10;;;25.43;59.46;97703.28;4969735;28;113948;-72
2022/09/14 09:20:28;;;;;;;2.30;2.10;;;24.90;96.70;;;25.47;58.27;97712.50;4970222;28;114143;-73
2022/09/14 09:23:15;;;;;;;3.07;1.93;;;25.00;96.10;;;25.49;58.43;97715.66;4985164;28;124042;-74
2022/09/14 09:26:01;;;;;;;5.60;2.20;;;25.00;95.90;;;25.55;58.21;97711.09;4976373;28;125364;-73
2022/09/14 09:28:28;;;;;;;3.33;2.20;;;25.10;95.70;;;25.63;57.86;97716.56;4976352;28;114302;-75
2022/09/14 09:31:00;;;;;;;2.90;2.20;;;25.10;95.70;;;25.69;57.79;97706.34;4978523;28;114755;-73
2022/09/14 09:33:27;;;;;;;5.03;2.43;;;25.20;95.60;;;25.78;57.17;97701.63;4979791;28;124390;-77
2022/09/14 09:35:54;;;;;;;3.20;2.03;;;25.30;95.40;;;25.89;57.20;97706.28;4984847;28;123404;-74
2022/09/14 09:38:24;;;;;;;4.33;1.70;;;25.30;95.30;;;25.97;56.66;97690.69;4983120;28;113602;-73
2022/09/14 09:41:26;;;;;;;4.07;2.30;;;25.40;95.00;;;26.03;56.57;97693.78;4978154;28;113785;-75
2022/09/14 09:44:13;;;;;;;5.93;2.20;;;24.40;94.30;;;26.09;55.85;97692.03;4982086;28;124021;-77
2022/09/14 09:47:01;;;;;;;6.90;2.43;;;25.60;94.40;;;26.13;55.35;97672.91;4987939;28;123025;-76
2022/09/14 09:49:36;;;;;;;2.97;1.80;;;25.70;93.90;;;26.19;54.85;97668.28;4980558;28;113214;-73
2022/09/14 09:52:15;;;;;;;3.27;2.07;;;25.70;93.80;;;26.25;54.89;97675.03;4968484;28;114456;-72
2022/09/14 09:54:50;;;;;;;5.50;2.10;;;25.70;93.60;;;26.30;54.30;97657.47;4966630;28;124282;-73
2022/09/14 09:57:22;;;;;;;3.47;2.40;;;25.80;93.30;;;26.34;54.19;97651.72;4967292;28;123813;-73
2022/09/14 09:59:49;;;;;;;2.73;2.10;;;25.80;93.20;;;26.39;54.52;97639.84;4973907;28;115323;-74
2022/09/14 10:02:26;;;;;;;6.50;2.27;;;25.90;93.10;;;26.46;53.75;97636.78;4975310;28;115114;-73
2022/09/14 10:05:03;;;;;;;2.90;1.73;;;26.00;93.20;;;26.56;53.48;97649.09;4972689;28;124606;-73
2022/09/14 10:07:52;;;;;;;2.70;1.77;;;26.00;92.80;;;26.65;53.49;97654.91;4962191;28;123516;-74
2022/09/14 10:10:38;;;;;;;3.40;2.13;;;26.10;92.80;;;26.73;53.04;97633.59;4972983;28;114489;-74
2022/09/14 10:13:30;;;;;;;5.03;2.10;;;26.20;92.40;;;26.80;52.37;97639.06;4980132;28;113686;-74
2022/09/14 10:16:17;;;;;;;3.37;2.37;;;26.30;92.10;;;26.84;52.30;97624.78;4970339;28;123775;-74
2022/09/14 10:18:50;;;;;;;2.73;2.00;;;26.40;91.60;;;26.86;52.09;97637.25;4965188;28;123612;-75
2022/09/14 10:21:22;;;;;;;6.27;2.20;;;26.40;91.70;;;26.87;51.91;97644.53;4980639;28;114523;-75
2022/09/14 10:24:19;;;;;;;5.37;2.50;;;26.40;91.50;;;26.88;52.27;97623.44;4980088;28;113967;-74
2022/09/14 10:26:45;;;;;;;2.33;1.80;;;26.50;91.40;;;26.94;51.71;97631.38;4991735;28;124220;-74
2022/09/14 10:29:42;;;;;;;5.50;1.90;;;26.50;91.30;;;26.95;51.60;97615.97;4969000;28;123227;-76
2022/09/14 10:32:23;;;;;;;3.20;2.30;;;26.50;90.90;;;26.97;51.23;97607.81;4969196;28;114603;-75
2022/09/14 10:34:52;;;;;;;7.60;2.20;;;26.50;90.80;;;27.00;50.74;97606.91;4991681;28;114560;-74
2022/09/14 10:37:31;;;;;;;3.47;1.73;;;26.60;90.70;;;27.02;51.20;97598.75;4969972;28;123970;-75
2022/09/14 10:40:15;;;;;;;2.93;2.27;;;26.60;90.70;;;27.04;50.61;97591.38;4977256;28;123701;-75
2022/09/14 10:43:06;;;;;;;3.13;1.80;;;26.60;90.60;;;27.08;50.80;97596.91;4979018;28;115122;-73
2022/09/14 10:45:39;;;;;;;2.90;1.80;;;26.60;90.50;;;27.10;50.67;97588.75;4976966;28;114048;-75
2022/09/14 10:48:39;;;;;;;3.67;2.07;;;26.70;90.40;;;27.09;50.14;97590.03;4978239;28;124944;-74
2022/09/14 10:51:44;;;;;;;3.40;2.33;;;26.70;90.00;;;27.09;49.97;97592.84;4969732;28;123850;-73